Time;durP1;ratioP1;P1;durP2;ratioP2;P2;SDS_P1;SDS_P2;PMS_P1;PMS_P2;Temp;Humidity;BMP_temperature;BMP_pressure;BME280_temperature;BME280_humidity;BME280_pressure;Samples;Min_cycle;Max_cycle;Signal;HPM_P1;HPM_P2
2023/05/19 00:00:29;;;;;;;;;;;;;;;;;;5037356;28;19959;-15
2023/05/19 00:02:55;;;;;;;;;;;;;;;;;;5036846;28;19933;-15
2023/05/19 00:05:21;;;;;;;;;;;;;;;;;;5037009;28;20351;-15
2023/05/19 00:07:47;;;;;;;;;;;;;;;;;;5037479;28;20354;-15
2023/05/19 00:10:13;;;;;;;;;;;;;;;;;;5035927;28;19999;-15
2023/05/19 00:12:39;;;;;;;;;;;;;;;;;;5036812;28;19909;-16
2023/05/19 00:15:05;;;;;;;;;;;;;;;;;;5037216;28;20351;-16
2023/05/19 00:17:33;;;;;;;;;;;;;;;;;;5036713;28;20244;-16
2023/05/19 00:19:59;;;;;;;;;;;;;;;;;;5036749;28;19909;-16
2023/05/19 00:22:25;;;;;;;;;;;;;;;;;;5036622;28;20364;-15
2023/05/19 00:24:51;;;;;;;;;;;;;;;;;;5037174;28;20316;-15
2023/05/19 00:27:17;;;;;;;;;;;;;;;;;;5036814;28;19909;-15
2023/05/19 00:29:42;;;;;;;;;;;;;;;;;;5036775;28;19909;-15
2023/05/19 00:32:09;;;;;;;;;;;;;;;;;;5036587;28;19958;-15
2023/05/19 00:34:35;;;;;;;;;;;;;;;;;;5036466;28;19923;-14
2023/05/19 00:37:01;;;;;;;;;;;;;;;;;;5035829;28;20051;-15
2023/05/19 00:39:26;;;;;;;;;;;;;;;;;;5035850;28;19940;-15
2023/05/19 00:41:52;;;;;;;;;;;;;;;;;;5036248;28;19978;-15
2023/05/19 00:44:18;;;;;;;;;;;;;;;;;;5035266;28;19916;-15
2023/05/19 00:46:44;;;;;;;;;;;;;;;;;;5036201;28;19939;-17
2023/05/19 00:49:10;;;;;;;;;;;;;;;;;;5036167;28;20355;-17
2023/05/19 00:51:36;;;;;;;;;;;;;;;;;;5036135;28;20042;-17
2023/05/19 00:54:02;;;;;;;;;;;;;;;;;;5035995;28;19979;-16
2023/05/19 00:56:28;;;;;;;;;;;;;;;;;;5035991;28;19925;-16
2023/05/19 00:58:54;;;;;;;;;;;;;;;;;;5035996;28;20023;-15
2023/05/19 01:01:21;;;;;;;;;;;;;;;;;;5035985;28;19967;-15
2023/05/19 01:03:47;;;;;;;;;;;;;;;;;;5039570;28;20363;-15
2023/05/19 01:06:13;;;;;;;;;;;;;;;;;;5036018;28;19968;-14
2023/05/19 01:08:40;;;;;;;;;;;;;;;;;;5035836;28;19909;-16
2023/05/19 01:11:05;;;;;;;;;;;;;;;;;;5035716;28;19909;-16
2023/05/19 01:13:33;;;;;;;;;;;;;;;;;;5034889;28;21269;-16
2023/05/19 01:16:00;;;;;;;;;;;;;;;;;;5035576;28;19960;-14
2023/05/19 01:18:26;;;;;;;;;;;;;;;;;;5035861;28;19913;-14
2023/05/19 01:20:52;;;;;;;;;;;;;;;;;;5035797;28;19967;-15
2023/05/19 01:23:18;;;;;;;;;;;;;;;;;;5035398;28;19909;-15
2023/05/19 01:25:44;;;;;;;;;;;;;;;;;;5035460;28;20370;-16
2023/05/19 01:28:10;;;;;;;;;;;;;;;;;;5035698;28;20000;-15
2023/05/19 01:30:35;;;;;;;;;;;;;;;;;;5035363;28;19916;-14
2023/05/19 01:33:01;;;;;;;;;;;;;;;;;;5034257;28;19920;-14
2023/05/19 01:35:27;;;;;;;;;;;;;;;;;;5034256;28;20341;-14
2023/05/19 01:37:53;;;;;;;;;;;;;;;;;;5035279;28;19916;-13
2023/05/19 01:40:19;;;;;;;;;;;;;;;;;;5035487;28;19909;-14
2023/05/19 01:42:45;;;;;;;;;;;;;;;;;;5035168;28;19956;-14
2023/05/19 01:45:11;;;;;;;;;;;;;;;;;;5035116;28;19917;-15
2023/05/19 01:47:37;;;;;;;;;;;;;;;;;;5035067;28;19909;-14
2023/05/19 01:50:03;;;;;;;;;;;;;;;;;;5034747;28;19916;-14
2023/05/19 01:52:29;;;;;;;;;;;;;;;;;;5034017;28;20012;-13
2023/05/19 01:54:55;;;;;;;;;;;;;;;;;;5034923;28;20317;-15
2023/05/19 01:57:21;;;;;;;;;;;;;;;;;;5034962;28;19996;-14
2023/05/19 01:59:47;;;;;;;;;;;;;;;;;;5035178;28;19909;-14
2023/05/19 02:02:13;;;;;;;;;;;;;;;;;;5034848;28;19913;-14
2023/05/19 02:04:39;;;;;;;;;;;;;;;;;;5034710;28;19929;-13
2023/05/19 02:07:05;;;;;;;;;;;;;;;;;;5035109;28;19920;-13
2023/05/19 02:09:31;;;;;;;;;;;;;;;;;;5034833;28;20277;-13
2023/05/19 02:11:56;;;;;;;;;;;;;;;;;;5034705;28;19910;-13
2023/05/19 02:14:22;;;;;;;;;;;;;;;;;;5034763;28;19909;-14
2023/05/19 02:16:48;;;;;;;;;;;;;;;;;;5034680;28;19953;-15
2023/05/19 02:19:15;;;;;;;;;;;;;;;;;;5034763;28;20263;-13
2023/05/19 02:21:40;;;;;;;;;;;;;;;;;;5034714;28;19909;-12
2023/05/19 02:24:06;;;;;;;;;;;;;;;;;;5034602;28;19909;-13
2023/05/19 02:26:32;;;;;;;;;;;;;;;;;;5034718;28;19910;-13
2023/05/19 02:28:58;;;;;;;;;;;;;;;;;;5034685;28;20251;-13
2023/05/19 02:31:24;;;;;;;;;;;;;;;;;;5035104;28;20391;-14
2023/05/19 02:33:50;;;;;;;;;;;;;;;;;;5034635;28;19919;-14
2023/05/19 02:36:17;;;;;;;;;;;;;;;;;;5034474;28;20008;-13
2023/05/19 02:38:43;;;;;;;;;;;;;;;;;;5034572;28;19963;-14
2023/05/19 02:41:09;;;;;;;;;;;;;;;;;;5034561;28;20011;-14
2023/05/19 02:43:35;;;;;;;;;;;;;;;;;;5034483;28;19909;-16
2023/05/19 02:46:01;;;;;;;;;;;;;;;;;;5034488;28;20248;-16
2023/05/19 02:48:27;;;;;;;;;;;;;;;;;;5034721;28;19986;-15
2023/05/19 02:50:53;;;;;;;;;;;;;;;;;;5034795;28;19914;-15
2023/05/19 02:53:19;;;;;;;;;;;;;;;;;;5034375;28;20340;-15
2023/05/19 02:55:45;;;;;;;;;;;;;;;;;;5034352;28;19960;-16
2023/05/19 02:58:11;;;;;;;;;;;;;;;;;;5034370;28;19963;-16
2023/05/19 03:00:37;;;;;;;;;;;;;;;;;;5035146;28;19909;-15
2023/05/19 03:03:03;;;;;;;;;;;;;;;;;;5037933;28;20394;-14
2023/05/19 03:05:29;;;;;;;;;;;;;;;;;;5037206;28;19917;-15
2023/05/19 03:07:55;;;;;;;;;;;;;;;;;;5038086;28;19915;-15
2023/05/19 03:10:21;;;;;;;;;;;;;;;;;;5038119;28;20350;-16
2023/05/19 03:12:47;;;;;;;;;;;;;;;;;;5038182;28;19920;-15
2023/05/19 03:15:13;;;;;;;;;;;;;;;;;;5036811;28;20031;-14
2023/05/19 03:17:39;;;;;;;;;;;;;;;;;;5038489;28;19909;-16
2023/05/19 03:20:05;;;;;;;;;;;;;;;;;;5038152;28;19909;-16
2023/05/19 03:22:31;;;;;;;;;;;;;;;;;;5037718;28;19920;-15
2023/05/19 03:24:57;;;;;;;;;;;;;;;;;;5037752;28;19967;-15
2023/05/19 03:27:23;;;;;;;;;;;;;;;;;;5037742;28;19910;-15
2023/05/19 03:29:49;;;;;;;;;;;;;;;;;;5037691;28;20336;-15
2023/05/19 03:32:15;;;;;;;;;;;;;;;;;;5037596;28;19909;-14
2023/05/19 03:34:41;;;;;;;;;;;;;;;;;;5037585;28;20212;-16
2023/05/19 03:37:09;;;;;;;;;;;;;;;;;;5037488;28;19967;-15
2023/05/19 03:39:35;;;;;;;;;;;;;;;;;;5037407;28;19923;-16
2023/05/19 03:42:01;;;;;;;;;;;;;;;;;;5037337;28;19999;-15
2023/05/19 03:44:27;;;;;;;;;;;;;;;;;;5037155;28;19909;-15
2023/05/19 03:46:53;;;;;;;;;;;;;;;;;;5037285;28;19936;-14
2023/05/19 03:49:19;;;;;;;;;;;;;;;;;;5037100;28;20299;-14
2023/05/19 03:51:45;;;;;;;;;;;;;;;;;;5037021;28;19939;-14
2023/05/19 03:54:11;;;;;;;;;;;;;;;;;;5036958;28;19988;-14
2023/05/19 03:56:37;;;;;;;;;;;;;;;;;;5036833;28;20327;-14
2023/05/19 03:59:05;;;;;;;;;;;;;;;;;;5037036;28;19917;-13
2023/05/19 04:01:31;;;;;;;;;;;;;;;;;;5037231;28;19999;-15
2023/05/19 04:03:57;;;;;;;;;;;;;;;;;;5036601;28;19921;-13
2023/05/19 04:06:23;;;;;;;;;;;;;;;;;;5037165;28;19909;-15
2023/05/19 04:08:49;;;;;;;;;;;;;;;;;;5035825;28;19913;-15
2023/05/19 04:11:15;;;;;;;;;;;;;;;;;;5036974;28;20004;-14
2023/05/19 04:13:41;;;;;;;;;;;;;;;;;;5036517;28;19971;-14
2023/05/19 04:16:07;;;;;;;;;;;;;;;;;;5036731;28;20243;-13
2023/05/19 04:18:33;;;;;;;;;;;;;;;;;;5036549;28;20269;-12
2023/05/19 04:21:00;;;;;;;;;;;;;;;;;;5036535;28;19916;-13
2023/05/19 04:23:26;;;;;;;;;;;;;;;;;;5036284;28;20073;-14
2023/05/19 04:25:53;;;;;;;;;;;;;;;;;;5036377;28;19987;-13
2023/05/19 04:28:19;;;;;;;;;;;;;;;;;;5036138;28;19909;-14
2023/05/19 04:30:45;;;;;;;;;;;;;;;;;;5036291;28;19923;-15
2023/05/19 04:33:11;;;;;;;;;;;;;;;;;;5036271;28;19999;-14
2023/05/19 04:35:38;;;;;;;;;;;;;;;;;;5035886;28;19917;-15
2023/05/19 04:38:04;;;;;;;;;;;;;;;;;;5036265;28;19939;-14
2023/05/19 04:40:30;;;;;;;;;;;;;;;;;;5035820;28;20241;-14
2023/05/19 04:42:56;;;;;;;;;;;;;;;;;;5034851;28;19988;-14
2023/05/19 04:45:24;;;;;;;;;;;;;;;;;;5036044;28;19920;-14
2023/05/19 04:47:51;;;;;;;;;;;;;;;;;;5035841;28;20348;-14
2023/05/19 04:50:17;;;;;;;;;;;;;;;;;;5036454;28;19992;-14
2023/05/19 04:52:46;;;;;;;;;;;;;;;;;;5034782;28;20344;-14
2023/05/19 04:55:12;;;;;;;;;;;;;;;;;;5036203;28;19909;-14
2023/05/19 04:57:38;;;;;;;;;;;;;;;;;;5036235;28;19916;-14
2023/05/19 05:00:07;;;;;;;;;;;;;;;;;;5034694;28;20344;-14
2023/05/19 05:02:33;;;;;;;;;;;;;;;;;;5034767;28;19936;-14
2023/05/19 05:04:59;;;;;;;;;;;;;;;;;;5035584;28;19956;-15
2023/05/19 05:07:25;;;;;;;;;;;;;;;;;;5035976;28;20336;-15
2023/05/19 05:09:51;;;;;;;;;;;;;;;;;;5035493;28;19909;-15
2023/05/19 05:12:17;;;;;;;;;;;;;;;;;;5035470;28;20276;-13
2023/05/19 05:14:43;;;;;;;;;;;;;;;;;;5035380;28;19909;-14
2023/05/19 05:17:09;;;;;;;;;;;;;;;;;;5035410;28;20255;-14
2023/05/19 05:19:35;;;;;;;;;;;;;;;;;;5035387;28;20279;-16
2023/05/19 05:22:01;;;;;;;;;;;;;;;;;;5035769;28;20321;-14
2023/05/19 05:24:27;;;;;;;;;;;;;;;;;;5034690;28;20344;-13
2023/05/19 05:26:53;;;;;;;;;;;;;;;;;;5035195;28;20389;-15
2023/05/19 05:29:19;;;;;;;;;;;;;;;;;;5035583;28;19920;-13
2023/05/19 05:31:45;;;;;;;;;;;;;;;;;;5035114;28;19913;-14
2023/05/19 05:34:11;;;;;;;;;;;;;;;;;;5035379;28;19920;-14
2023/05/19 05:36:37;;;;;;;;;;;;;;;;;;5035055;28;19917;-15
2023/05/19 05:39:04;;;;;;;;;;;;;;;;;;5034161;28;20027;-14
2023/05/19 05:41:34;;;;;;;;;;;;;;;;;;5035074;28;19972;-16
2023/05/19 05:43:59;;;;;;;;;;;;;;;;;;5035022;28;20351;-15
2023/05/19 05:46:25;;;;;;;;;;;;;;;;;;5035020;28;19916;-16
2023/05/19 05:48:51;;;;;;;;;;;;;;;;;;5034940;28;19909;-15
2023/05/19 05:51:17;;;;;;;;;;;;;;;;;;5033697;28;19940;-16
2023/05/19 05:53:43;;;;;;;;;;;;;;;;;;5034728;28;19936;-14
2023/05/19 05:56:09;;;;;;;;;;;;;;;;;;5034431;28;19913;-14
2023/05/19 05:58:36;;;;;;;;;;;;;;;;;;5034906;28;20031;-14
2023/05/19 06:01:03;;;;;;;;;;;;;;;;;;5034587;28;19996;-14
2023/05/19 06:03:30;;;;;;;;;;;;;;;;;;5034287;28;20046;-15
2023/05/19 06:05:56;;;;;;;;;;;;;;;;;;5033286;28;19920;-16
2023/05/19 06:08:22;;;;;;;;;;;;;;;;;;5034514;28;19909;-14
2023/05/19 06:10:48;;;;;;;;;;;;;;;;;;5034431;28;19973;-13
2023/05/19 06:13:17;;;;;;;;;;;;;;;;;;5034049;28;20013;-16
2023/05/19 06:15:43;;;;;;;;;;;;;;;;;;5033003;28;19924;-14
2023/05/19 06:18:09;;;;;;;;;;;;;;;;;;5033989;28;19913;-13
2023/05/19 06:20:35;;;;;;;;;;;;;;;;;;5033969;28;20015;-13
2023/05/19 06:23:01;;;;;;;;;;;;;;;;;;5033735;28;20320;-15
2023/05/19 06:25:27;;;;;;;;;;;;;;;;;;5033819;28;20004;-15
2023/05/19 06:27:53;;;;;;;;;;;;;;;;;;5033875;28;19909;-14
2023/05/19 06:30:19;;;;;;;;;;;;;;;;;;5034172;28;19963;-14
2023/05/19 06:32:45;;;;;;;;;;;;;;;;;;5034087;28;20004;-14
2023/05/19 06:35:11;;;;;;;;;;;;;;;;;;5035254;28;20049;-14
2023/05/19 06:37:37;;;;;;;;;;;;;;;;;;5037153;28;19909;-16
2023/05/19 06:40:04;;;;;;;;;;;;;;;;;;5038302;28;19916;-14
2023/05/19 06:42:30;;;;;;;;;;;;;;;;;;5038563;28;19975;-15
2023/05/19 06:44:56;;;;;;;;;;;;;;;;;;5038224;28;19924;-15
2023/05/19 06:47:22;;;;;;;;;;;;;;;;;;5038070;28;19923;-14
2023/05/19 06:49:49;;;;;;;;;;;;;;;;;;5038388;28;19909;-14
2023/05/19 06:52:15;;;;;;;;;;;;;;;;;;5036993;28;19909;-16
2023/05/19 06:54:41;;;;;;;;;;;;;;;;;;5038266;28;20013;-14
2023/05/19 06:57:07;;;;;;;;;;;;;;;;;;5038021;28;19917;-13
2023/05/19 06:59:33;;;;;;;;;;;;;;;;;;5037962;28;19909;-13
2023/05/19 07:02:01;;;;;;;;;;;;;;;;;;5037798;28;19953;-14
2023/05/19 07:04:27;;;;;;;;;;;;;;;;;;5037840;28;19923;-14
2023/05/19 07:06:53;;;;;;;;;;;;;;;;;;5037805;28;19970;-15
2023/05/19 07:09:19;;;;;;;;;;;;;;;;;;5037768;28;19909;-14
2023/05/19 07:11:45;;;;;;;;;;;;;;;;;;5037763;28;19920;-14
2023/05/19 07:14:11;;;;;;;;;;;;;;;;;;5038131;28;19987;-14
2023/05/19 07:16:37;;;;;;;;;;;;;;;;;;5038417;28;19912;-14
2023/05/19 07:19:03;;;;;;;;;;;;;;;;;;5037687;28;19917;-13
2023/05/19 07:21:29;;;;;;;;;;;;;;;;;;5037546;28;19967;-13
2023/05/19 07:23:55;;;;;;;;;;;;;;;;;;5037352;28;19919;-13
2023/05/19 07:26:21;;;;;;;;;;;;;;;;;;5037658;28;20300;-13
2023/05/19 07:28:47;;;;;;;;;;;;;;;;;;5037965;28;19909;-14
2023/05/19 07:31:13;;;;;;;;;;;;;;;;;;5037884;28;20019;-14
2023/05/19 07:33:39;;;;;;;;;;;;;;;;;;5037547;28;19916;-14
2023/05/19 07:36:05;;;;;;;;;;;;;;;;;;5037158;28;19917;-14
2023/05/19 07:38:33;;;;;;;;;;;;;;;;;;5037204;28;19939;-13
2023/05/19 07:40:59;;;;;;;;;;;;;;;;;;5036294;28;19939;-13
2023/05/19 07:43:25;;;;;;;;;;;;;;;;;;5037214;28;20035;-13
2023/05/19 07:45:52;;;;;;;;;;;;;;;;;;5035983;28;19960;-14
2023/05/19 07:48:21;;;;;;;;;;;;;;;;;;5036375;28;19939;-14
2023/05/19 07:50:47;;;;;;;;;;;;;;;;;;5037184;28;19992;-14
2023/05/19 07:53:13;;;;;;;;;;;;;;;;;;5037020;28;19949;-14
2023/05/19 07:55:38;;;;;;;;;;;;;;;;;;5037043;28;19970;-14
2023/05/19 07:58:04;;;;;;;;;;;;;;;;;;5037079;28;20012;-14
2023/05/19 08:00:30;;;;;;;;;;;;;;;;;;5037292;28;20035;-16
2023/05/19 08:02:56;;;;;;;;;;;;;;;;;;5036526;28;19929;-15
2023/05/19 08:05:22;;;;;;;;;;;;;;;;;;5036828;28;19909;-15
2023/05/19 08:07:48;;;;;;;;;;;;;;;;;;5037146;28;19936;-14
2023/05/19 08:10:14;;;;;;;;;;;;;;;;;;5036595;28;20428;-14
2023/05/19 08:12:40;;;;;;;;;;;;;;;;;;5036481;28;19909;-15
2023/05/19 08:15:06;;;;;;;;;;;;;;;;;;5037207;28;20394;-15
2023/05/19 08:17:32;;;;;;;;;;;;;;;;;;5037052;28;20297;-14
2023/05/19 08:19:59;;;;;;;;;;;;;;;;;;5036370;28;19909;-14
2023/05/19 08:22:25;;;;;;;;;;;;;;;;;;5036753;28;19924;-14
2023/05/19 08:24:51;;;;;;;;;;;;;;;;;;5036735;28;19917;-15
2023/05/19 08:27:17;;;;;;;;;;;;;;;;;;5036902;28;20052;-16
2023/05/19 08:29:43;;;;;;;;;;;;;;;;;;5036491;28;19909;-13
2023/05/19 08:32:09;;;;;;;;;;;;;;;;;;5036404;28;19909;-14
2023/05/19 08:34:35;;;;;;;;;;;;;;;;;;5036944;28;20251;-16
2023/05/19 08:37:01;;;;;;;;;;;;;;;;;;5036521;28;19913;-15
2023/05/19 08:39:27;;;;;;;;;;;;;;;;;;5036460;28;19909;-14
2023/05/19 08:41:53;;;;;;;;;;;;;;;;;;5034789;28;19967;-15
2023/05/19 08:44:19;;;;;;;;;;;;;;;;;;5035840;28;19909;-14
2023/05/19 08:46:46;;;;;;;;;;;;;;;;;;5035845;28;19991;-14
2023/05/19 08:49:12;;;;;;;;;;;;;;;;;;5034989;28;20004;-13
2023/05/19 08:51:38;;;;;;;;;;;;;;;;;;5036200;28;20351;-15
2023/05/19 08:54:04;;;;;;;;;;;;;;;;;;5035654;28;19917;-15
2023/05/19 08:56:30;;;;;;;;;;;;;;;;;;5035534;28;19913;-13
2023/05/19 08:58:59;;;;;;;;;;;;;;;;;;5034809;28;19910;-15
2023/05/19 09:01:25;;;;;;;;;;;;;;;;;;5035756;28;19913;-15
2023/05/19 09:03:51;;;;;;;;;;;;;;;;;;5035151;28;20051;-14
2023/05/19 09:06:17;;;;;;;;;;;;;;;;;;5035357;28;20066;-14
2023/05/19 09:08:43;;;;;;;;;;;;;;;;;;5034226;28;20244;-13
2023/05/19 09:11:09;;;;;;;;;;;;;;;;;;5035490;28;20205;-12
2023/05/19 09:13:35;;;;;;;;;;;;;;;;;;5034450;28;20307;-14
2023/05/19 09:16:02;;;;;;;;;;;;;;;;;;5035506;28;19996;-13
2023/05/19 09:18:28;;;;;;;;;;;;;;;;;;5035238;28;19909;-14
2023/05/19 09:20:54;;;;;;;;;;;;;;;;;;5034920;28;20308;-14
2023/05/19 09:23:20;;;;;;;;;;;;;;;;;;5035487;28;19909;-15
2023/05/19 09:25:45;;;;;;;;;;;;;;;;;;5034317;28;19909;-14
2023/05/19 09:28:11;;;;;;;;;;;;;;;;;;5035219;28;19909;-14
2023/05/19 09:30:38;;;;;;;;;;;;;;;;;;5034162;28;19916;-12
2023/05/19 09:33:08;;;;;;;;;;;;;;;;;;5035427;28;19920;-13
2023/05/19 09:35:35;;;;;;;;;;;;;;;;;;5035190;28;20411;-13
2023/05/19 09:38:01;;;;;;;;;;;;;;;;;;5035250;28;19920;-13
2023/05/19 09:40:27;;;;;;;;;;;;;;;;;;5035154;28;19909;-14
2023/05/19 09:42:53;;;;;;;;;;;;;;;;;;5035213;28;19917;-15
2023/05/19 09:45:19;;;;;;;;;;;;;;;;;;5034986;28;20035;-14
2023/05/19 09:47:46;;;;;;;;;;;;;;;;;;5034022;28;19919;-14
2023/05/19 09:50:12;;;;;;;;;;;;;;;;;;5034036;28;20233;-15
2023/05/19 09:52:39;;;;;;;;;;;;;;;;;;5035166;28;20285;-15
2023/05/19 09:55:05;;;;;;;;;;;;;;;;;;5034934;28;19964;-13
2023/05/19 09:57:32;;;;;;;;;;;;;;;;;;5034889;28;19925;-14
2023/05/19 09:59:58;;;;;;;;;;;;;;;;;;5034689;28;19919;-13
2023/05/19 10:02:24;;;;;;;;;;;;;;;;;;5034572;28;19909;-13
2023/05/19 10:04:50;;;;;;;;;;;;;;;;;;5034586;28;20016;-14
2023/05/19 10:07:17;;;;;;;;;;;;;;;;;;5034937;28;19944;-13
2023/05/19 10:09:43;;;;;;;;;;;;;;;;;;5033427;28;19909;-15
2023/05/19 10:12:09;;;;;;;;;;;;;;;;;;5034592;28;20299;-15
2023/05/19 10:14:35;;;;;;;;;;;;;;;;;;5034705;28;20256;-15
2023/05/19 10:17:01;;;;;;;;;;;;;;;;;;5034631;28;19913;-15
2023/05/19 10:19:27;;;;;;;;;;;;;;;;;;5033637;28;20003;-14
2023/05/19 10:21:53;;;;;;;;;;;;;;;;;;5033544;28;19909;-16
2023/05/19 10:24:19;;;;;;;;;;;;;;;;;;5033516;28;19909;-15
2023/05/19 10:26:46;;;;;;;;;;;;;;;;;;5034633;28;20244;-16
2023/05/19 10:29:11;;;;;;;;;;;;;;;;;;5034542;28;19920;-15
2023/05/19 10:31:39;;;;;;;;;;;;;;;;;;5035000;28;19941;-16
2023/05/19 10:34:05;;;;;;;;;;;;;;;;;;5033412;28;19999;-15
2023/05/19 10:36:31;;;;;;;;;;;;;;;;;;5034903;28;20012;-15
2023/05/19 10:38:57;;;;;;;;;;;;;;;;;;5034466;28;19967;-14
2023/05/19 10:41:23;;;;;;;;;;;;;;;;;;5033395;28;19909;-14
2023/05/19 10:43:49;;;;;;;;;;;;;;;;;;5034364;28;19956;-15
2023/05/19 10:46:15;;;;;;;;;;;;;;;;;;5034898;28;20328;-14
2023/05/19 10:48:41;;;;;;;;;;;;;;;;;;5033251;28;19985;-16
2023/05/19 10:51:10;;;;;;;;;;;;;;;;;;5033595;28;19909;-16
2023/05/19 10:53:37;;;;;;;;;;;;;;;;;;5034272;28;19909;-15
2023/05/19 10:56:03;;;;;;;;;;;;;;;;;;5034455;28;19921;-15
2023/05/19 10:58:29;;;;;;;;;;;;;;;;;;5034203;28;19909;-13
2023/05/19 11:00:55;;;;;;;;;;;;;;;;;;5034310;28;19913;-16
2023/05/19 11:03:23;;;;;;;;;;;;;;;;;;5034043;28;19921;-15
2023/05/19 11:05:51;;;;;;;;;;;;;;;;;;5034160;28;20104;-15
2023/05/19 11:08:17;;;;;;;;;;;;;;;;;;5034587;28;20007;-16
2023/05/19 11:10:44;;;;;;;;;;;;;;;;;;5034363;28;20007;-15
2023/05/19 11:13:10;;;;;;;;;;;;;;;;;;5033942;28;19909;-16
2023/05/19 11:15:36;;;;;;;;;;;;;;;;;;5033855;28;19944;-17
2023/05/19 11:18:02;;;;;;;;;;;;;;;;;;5033934;28;19913;-17
2023/05/19 11:20:28;;;;;;;;;;;;;;;;;;5033870;28;19915;-16
2023/05/19 11:22:54;;;;;;;;;;;;;;;;;;5036118;28;19940;-15
2023/05/19 11:25:20;;;;;;;;;;;;;;;;;;5038151;28;20313;-12
2023/05/19 11:27:46;;;;;;;;;;;;;;;;;;5037611;28;19913;-14
2023/05/19 11:30:17;;;;;;;;;;;;;;;;;;5036634;28;19920;-14
2023/05/19 11:32:43;;;;;;;;;;;;;;;;;;5037820;28;19970;-14
2023/05/19 11:35:09;;;;;;;;;;;;;;;;;;5037794;28;20004;-14
2023/05/19 11:37:35;;;;;;;;;;;;;;;;;;5037380;28;19917;-14
2023/05/19 11:40:01;;;;;;;;;;;;;;;;;;5037403;28;19909;-15
2023/05/19 11:42:27;;;;;;;;;;;;;;;;;;5037274;28;19970;-13
2023/05/19 11:44:53;;;;;;;;;;;;;;;;;;5037417;28;19963;-13
2023/05/19 11:47:19;;;;;;;;;;;;;;;;;;5037338;28;19909;-13
2023/05/19 11:49:46;;;;;;;;;;;;;;;;;;5037379;28;20255;-13
2023/05/19 11:52:12;;;;;;;;;;;;;;;;;;5036177;28;20315;-14
2023/05/19 11:54:40;;;;;;;;;;;;;;;;;;5037397;28;19909;-14
2023/05/19 11:57:06;;;;;;;;;;;;;;;;;;5037124;28;19913;-14
2023/05/19 11:59:32;;;;;;;;;;;;;;;;;;5036116;28;19916;-14
2023/05/19 12:01:58;;;;;;;;;;;;;;;;;;5037211;28;19909;-13
2023/05/19 12:04:24;;;;;;;;;;;;;;;;;;5036766;28;19921;-14
2023/05/19 12:06:51;;;;;;;;;;;;;;;;;;5037714;28;19913;-13
2023/05/19 12:09:17;;;;;;;;;;;;;;;;;;5036893;28;19967;-14
2023/05/19 12:11:43;;;;;;;;;;;;;;;;;;5037064;28;19913;-14
2023/05/19 12:14:09;;;;;;;;;;;;;;;;;;5036662;28;19909;-14
2023/05/19 12:16:35;;;;;;;;;;;;;;;;;;5036622;28;20019;-15
2023/05/19 12:19:00;;;;;;;;;;;;;;;;;;5037139;28;20309;-15
2023/05/19 12:21:26;;;;;;;;;;;;;;;;;;5036559;28;19915;-15
2023/05/19 12:23:52;;;;;;;;;;;;;;;;;;5036566;28;20344;-13
2023/05/19 12:26:21;;;;;;;;;;;;;;;;;;5036495;28;19996;-15
2023/05/19 12:28:47;;;;;;;;;;;;;;;;;;5036451;28;20306;-15
2023/05/19 12:31:13;;;;;;;;;;;;;;;;;;5035387;28;19913;-13
2023/05/19 12:33:39;;;;;;;;;;;;;;;;;;5036145;28;20336;-14
2023/05/19 12:36:05;;;;;;;;;;;;;;;;;;5035100;28;19917;-14
2023/05/19 12:38:31;;;;;;;;;;;;;;;;;;5036066;28;19910;-15
2023/05/19 12:40:57;;;;;;;;;;;;;;;;;;5035030;28;19916;-15
2023/05/19 12:43:22;;;;;;;;;;;;;;;;;;5035877;28;19916;-12
2023/05/19 12:45:49;;;;;;;;;;;;;;;;;;5034864;28;19920;-14
2023/05/19 12:48:15;;;;;;;;;;;;;;;;;;5036134;28;19913;-14
2023/05/19 12:50:41;;;;;;;;;;;;;;;;;;5035793;28;20382;-14
2023/05/19 12:53:07;;;;;;;;;;;;;;;;;;5034717;28;19919;-14
2023/05/19 12:55:33;;;;;;;;;;;;;;;;;;5035686;28;19910;-16
2023/05/19 12:57:59;;;;;;;;;;;;;;;;;;5036141;28;20301;-15
2023/05/19 13:00:27;;;;;;;;;;;;;;;;;;5035454;28;20252;-14
2023/05/19 13:02:53;;;;;;;;;;;;;;;;;;5035374;28;19920;-14
2023/05/19 13:05:20;;;;;;;;;;;;;;;;;;5035791;28;20256;-14
2023/05/19 13:07:45;;;;;;;;;;;;;;;;;;5035580;28;19936;-15
2023/05/19 13:10:11;;;;;;;;;;;;;;;;;;5034508;28;19910;-13
2023/05/19 13:12:37;;;;;;;;;;;;;;;;;;5034412;28;20009;-14
2023/05/19 13:15:03;;;;;;;;;;;;;;;;;;5035946;28;19910;-13
2023/05/19 13:17:29;;;;;;;;;;;;;;;;;;5035361;28;20252;-14
2023/05/19 13:19:55;;;;;;;;;;;;;;;;;;5035431;28;19958;-15
2023/05/19 13:22:21;;;;;;;;;;;;;;;;;;5035253;28;20293;-16
2023/05/19 13:24:47;;;;;;;;;;;;;;;;;;5034284;28;20337;-17
2023/05/19 13:27:13;;;;;;;;;;;;;;;;;;5034113;28;19919;-18
2023/05/19 13:29:39;;;;;;;;;;;;;;;;;;5034027;28;19917;-14
2023/05/19 13:32:05;;;;;;;;;;;;;;;;;;5035341;28;20020;-14
2023/05/19 13:34:31;;;;;;;;;;;;;;;;;;5034886;28;19957;-15
2023/05/19 13:36:57;;;;;;;;;;;;;;;;;;5035145;28;20354;-15
2023/05/19 13:39:23;;;;;;;;;;;;;;;;;;5035109;28;20358;-15
2023/05/19 13:41:49;;;;;;;;;;;;;;;;;;5035239;28;20300;-17
2023/05/19 13:44:15;;;;;;;;;;;;;;;;;;5034580;28;19939;-16
2023/05/19 13:46:41;;;;;;;;;;;;;;;;;;5034761;28;19992;-15
2023/05/19 13:49:07;;;;;;;;;;;;;;;;;;5034907;28;19920;-16
2023/05/19 13:51:33;;;;;;;;;;;;;;;;;;5034783;28;19916;-17
2023/05/19 13:53:59;;;;;;;;;;;;;;;;;;5033681;28;19983;-17
2023/05/19 13:56:25;;;;;;;;;;;;;;;;;;5034613;28;19917;-15
2023/05/19 13:58:53;;;;;;;;;;;;;;;;;;5035127;28;19909;-15
2023/05/19 14:01:19;;;;;;;;;;;;;;;;;;5034965;28;19909;-16
2023/05/19 14:03:45;;;;;;;;;;;;;;;;;;5034097;28;19925;-17
2023/05/19 14:06:11;;;;;;;;;;;;;;;;;;5034581;28;20306;-15
2023/05/19 14:08:37;;;;;;;;;;;;;;;;;;5034709;28;19917;-15
2023/05/19 14:11:03;;;;;;;;;;;;;;;;;;5034520;28;20316;-15
2023/05/19 14:13:29;;;;;;;;;;;;;;;;;;5034470;28;19958;-14
2023/05/19 14:15:55;;;;;;;;;;;;;;;;;;5034409;28;19917;-17
2023/05/19 14:18:21;;;;;;;;;;;;;;;;;;5034555;28;19943;-18
2023/05/19 14:20:47;;;;;;;;;;;;;;;;;;5033544;28;19909;-15
2023/05/19 14:23:14;;;;;;;;;;;;;;;;;;5034490;28;19909;-14
2023/05/19 14:25:40;;;;;;;;;;;;;;;;;;5035380;28;20342;-15
2023/05/19 14:28:06;;;;;;;;;;;;;;;;;;5034556;28;19909;-14
2023/05/19 14:30:32;;;;;;;;;;;;;;;;;;5035053;28;19935;-16
2023/05/19 14:32:58;;;;;;;;;;;;;;;;;;5034183;28;19910;-15
2023/05/19 14:35:24;;;;;;;;;;;;;;;;;;5034241;28;19910;-16
2023/05/19 14:37:50;;;;;;;;;;;;;;;;;;5034597;28;19909;-17
2023/05/19 14:40:16;;;;;;;;;;;;;;;;;;5034270;28;19910;-15
2023/05/19 14:42:42;;;;;;;;;;;;;;;;;;5033112;28;19962;-16
2023/05/19 14:45:08;;;;;;;;;;;;;;;;;;5034332;28;19916;-15
2023/05/19 14:47:34;;;;;;;;;;;;;;;;;;5034531;28;20337;-17
2023/05/19 14:50:00;;;;;;;;;;;;;;;;;;5032978;28;20256;-17
2023/05/19 14:52:26;;;;;;;;;;;;;;;;;;5034093;28;19909;-15
2023/05/19 14:54:52;;;;;;;;;;;;;;;;;;5032844;28;19909;-15
2023/05/19 14:57:18;;;;;;;;;;;;;;;;;;5035273;28;19921;-16
2023/05/19 14:59:44;;;;;;;;;;;;;;;;;;5037858;28;19910;-24
2023/05/19 15:02:11;;;;;;;;;;;;;;;;;;5038126;28;20008;-16
2023/05/19 15:04:37;;;;;;;;;;;;;;;;;;5038091;28;19921;-16
2023/05/19 15:07:03;;;;;;;;;;;;;;;;;;5037907;28;19967;-14
2023/05/19 15:09:29;;;;;;;;;;;;;;;;;;5038403;28;20232;-15
2023/05/19 15:11:55;;;;;;;;;;;;;;;;;;5037742;28;19921;-15
2023/05/19 15:14:21;;;;;;;;;;;;;;;;;;5037518;28;20244;-14
2023/05/19 15:16:47;;;;;;;;;;;;;;;;;;5036266;28;19952;-14
2023/05/19 15:19:13;;;;;;;;;;;;;;;;;;5037285;28;19980;-19
2023/05/19 15:21:39;;;;;;;;;;;;;;;;;;5037080;28;19909;-15
2023/05/19 15:24:05;;;;;;;;;;;;;;;;;;5037131;28;19913;-15
2023/05/19 15:26:31;;;;;;;;;;;;;;;;;;5037197;28;19909;-15
2023/05/19 15:28:57;;;;;;;;;;;;;;;;;;5037472;28;19909;-16
2023/05/19 15:31:23;;;;;;;;;;;;;;;;;;5037232;28;19909;-14
2023/05/19 15:33:49;;;;;;;;;;;;;;;;;;5036935;28;20255;-17
2023/05/19 15:36:15;;;;;;;;;;;;;;;;;;5037116;28;19933;-13
2023/05/19 15:38:41;;;;;;;;;;;;;;;;;;5037405;28;19920;-18
2023/05/19 15:41:07;;;;;;;;;;;;;;;;;;5037560;28;19967;-19
2023/05/19 15:43:33;;;;;;;;;;;;;;;;;;5037085;28;19936;-17
2023/05/19 15:45:59;;;;;;;;;;;;;;;;;;5037219;28;19909;-14
2023/05/19 15:48:27;;;;;;;;;;;;;;;;;;5037176;28;20415;-15
2023/05/19 15:50:53;;;;;;;;;;;;;;;;;;5037776;28;20031;-16
2023/05/19 15:53:19;;;;;;;;;;;;;;;;;;5037090;28;20324;-15
2023/05/19 15:55:45;;;;;;;;;;;;;;;;;;5037429;28;20319;-14
2023/05/19 15:58:12;;;;;;;;;;;;;;;;;;5036966;28;19924;-14
2023/05/19 16:00:38;;;;;;;;;;;;;;;;;;5037079;28;20264;-13
2023/05/19 16:03:04;;;;;;;;;;;;;;;;;;5036608;28;19928;-13
2023/05/19 16:05:30;;;;;;;;;;;;;;;;;;5036091;28;19909;-15
2023/05/19 16:07:56;;;;;;;;;;;;;;;;;;5036404;28;20275;-14
2023/05/19 16:10:22;;;;;;;;;;;;;;;;;;5037281;28;20197;-13
2023/05/19 16:12:48;;;;;;;;;;;;;;;;;;5036926;28;19916;-14
2023/05/19 16:15:14;;;;;;;;;;;;;;;;;;5035587;28;19945;-13
2023/05/19 16:17:40;;;;;;;;;;;;;;;;;;5036695;28;19913;-23
2023/05/19 16:20:06;;;;;;;;;;;;;;;;;;5035675;28;19916;-15
2023/05/19 16:22:32;;;;;;;;;;;;;;;;;;5036470;28;19983;-15
2023/05/19 16:24:58;;;;;;;;;;;;;;;;;;5036661;28;19910;-15
2023/05/19 16:27:24;;;;;;;;;;;;;;;;;;5036417;28;19974;-16
2023/05/19 16:29:50;;;;;;;;;;;;;;;;;;5036391;28;19909;-14
2023/05/19 16:32:16;;;;;;;;;;;;;;;;;;5036210;28;19909;-14
2023/05/19 16:34:42;;;;;;;;;;;;;;;;;;5036783;28;19970;-15
2023/05/19 16:37:08;;;;;;;;;;;;;;;;;;5036067;28;19913;-16